Time;durP1;ratioP1;P1;durP2;ratioP2;P2;SDS_P1;SDS_P2;PMS_P1;PMS_P2;Temp;Humidity;BMP_temperature;BMP_pressure;BME280_temperature;BME280_humidity;BME280_pressure;Samples;Min_cycle;Max_cycle;Signal;HPM_P1;HPM_P2
2022/02/09 00:00:04;;;;;;;;;;;20.00;41.70;;;;;;5075771;28;19986;-64
2022/02/09 00:02:38;;;;;;;;;;;20.00;41.70;;;;;;5075987;28;19951;-64
2022/02/09 00:05:25;;;;;;;;;;;20.00;41.70;;;;;;5075844;28;19909;-64
2022/02/09 00:10:22;;;;;;;;;;;19.90;41.70;;;;;;5075738;28;20329;-64
2022/02/09 00:12:58;;;;;;;;;;;19.90;41.70;;;;;;5075710;28;19916;-64
2022/02/09 00:15:41;;;;;;;;;;;19.90;41.70;;;;;;5075602;28;20315;-64
2022/02/09 00:18:19;;;;;;;;;;;19.90;41.70;;;;;;5075787;28;19916;-64
2022/02/09 00:23:41;;;;;;;;;;;19.90;41.70;;;;;;5075803;28;19908;-64
2022/02/09 00:29:03;;;;;;;;;;;19.90;41.70;;;;;;5075922;28;20271;-64
2022/02/09 00:37:19;;;;;;;;;;;19.90;41.70;;;;;;5075270;28;19919;-64
2022/02/09 01:40:02;;;;;;;;;;;19.80;41.70;;;;;;5073969;28;19957;-64
2022/02/09 01:56:00;;;;;;;;;;;19.80;41.70;;;;;;5073749;28;19919;-64
2022/02/09 01:58:26;;;;;;;;;;;19.80;41.70;;;;;;5055793;28;19916;-64
2022/02/09 02:00:51;;;;;;;;;;;19.80;41.70;;;;;;5073305;28;19928;-63
2022/02/09 02:03:17;;;;;;;;;;;19.80;41.70;;;;;;5072854;28;20401;-64
2022/02/09 02:05:42;;;;;;;;;;;19.80;41.70;;;;;;5073142;28;19962;-63
2022/02/09 02:08:09;;;;;;;;;;;19.80;41.70;;;;;;5073364;28;19909;-64
2022/02/09 02:10:52;;;;;;;;;;;19.80;41.70;;;;;;5072722;28;19962;-63
2022/02/09 02:13:49;;;;;;;;;;;19.80;41.70;;;;;;5071733;28;19913;-64
2022/02/09 02:18:44;;;;;;;;;;;19.80;41.80;;;;;;5072648;28;19923;-63
2022/02/09 02:39:54;;;;;;;;;;;19.70;41.80;;;;;;5072345;28;19927;-64
2022/02/09 03:09:18;;;;;;;;;;;19.70;41.90;;;;;;5073008;28;20448;-64
2022/02/09 03:14:26;;;;;;;;;;;19.70;41.90;;;;;;5073108;28;19915;-64
2022/02/09 03:17:03;;;;;;;;;;;19.70;41.90;;;;;;5054899;28;19909;-64
2022/02/09 03:22:20;;;;;;;;;;;19.70;41.90;;;;;;5073056;28;19913;-64
2022/02/09 03:42:26;;;;;;;;;;;19.70;41.90;;;;;;5072683;28;19920;-64
2022/02/09 03:46:50;;;;;;;;;;;19.70;41.90;;;;;;5072843;28;19915;-64
2022/02/09 03:54:23;;;;;;;;;;;19.60;41.90;;;;;;5072598;28;19909;-64
2022/02/09 03:57:02;;;;;;;;;;;19.70;41.90;;;;;;5072437;28;19912;-64
2022/02/09 03:59:30;;;;;;;;;;;19.70;42.00;;;;;;5074294;28;19925;-64
2022/02/09 04:01:56;;;;;;;;;;;19.60;41.90;;;;;;5075744;28;19920;-64
2022/02/09 04:04:22;;;;;;;;;;;19.70;41.90;;;;;;5075862;28;19909;-64
2022/02/09 04:06:50;;;;;;;;;;;19.70;42.00;;;;;;5075839;28;19913;-64
2022/02/09 04:09:19;;;;;;;;;;;19.70;42.00;;;;;;5075717;28;20379;-64
2022/02/09 04:11:56;;;;;;;;;;;19.70;42.00;;;;;;5074497;28;20356;-64
2022/02/09 04:43:46;;;;;;;;;;;19.70;41.90;;;;;;5075537;28;19995;-64
2022/02/09 04:46:45;;;;;;;;;;;19.70;42.00;;;;;;5075251;28;19908;-64
2022/02/09 04:51:46;;;;;;;;;;;19.70;42.00;;;;;;5075345;28;19908;-64
2022/02/09 04:54:33;;;;;;;;;;;19.70;42.00;;;;;;5075053;28;20279;-64
2022/02/09 04:57:04;;;;;;;;;;;19.60;42.00;;;;;;5074998;28;19970;-63
2022/02/09 04:59:41;;;;;;;;;;;19.70;42.00;;;;;;5074863;28;19985;-64
2022/02/09 05:21:21;;;;;;;;;;;19.70;41.90;;;;;;5074880;28;20003;-64
2022/02/09 05:26:07;;;;;;;;;;;19.80;41.90;;;;;;5074391;28;20003;-64
2022/02/09 05:28:33;;;;;;;;;;;19.80;41.90;;;;;;5073121;28;20300;-64
2022/02/09 05:30:58;;;;;;;;;;;19.80;41.90;;;;;;5074269;28;19915;-64
2022/02/09 05:33:24;;;;;;;;;;;19.80;41.90;;;;;;5074129;28;19915;-64
2022/02/09 05:35:50;;;;;;;;;;;19.90;41.80;;;;;;5074208;28;20337;-63
2022/02/09 05:38:15;;;;;;;;;;;19.90;41.90;;;;;;5074099;28;20252;-63
2022/02/09 05:40:42;;;;;;;;;;;19.90;41.80;;;;;;5074097;28;20405;-64
2022/02/09 05:43:09;;;;;;;;;;;19.90;41.80;;;;;;5074045;28;20287;-64
2022/02/09 05:53:20;;;;;;;;;;;20.00;41.80;;;;;;5074286;28;19908;-64
2022/02/09 05:56:07;;;;;;;;;;;20.00;41.80;;;;;;5073872;28;20356;-64
2022/02/09 05:58:36;;;;;;;;;;;20.00;41.80;;;;;;5073694;28;20425;-63
2022/02/09 06:01:03;;;;;;;;;;;20.00;41.80;;;;;;5072289;28;19920;-64
2022/02/09 06:03:28;;;;;;;;;;;20.00;41.80;;;;;;5055713;28;19912;-64
2022/02/09 06:05:54;;;;;;;;;;;20.00;41.80;;;;;;5055708;28;19916;-63
2022/02/09 06:08:22;;;;;;;;;;;20.00;41.80;;;;;;5055659;28;19931;-63
2022/02/09 06:10:53;;;;;;;;;;;20.00;41.80;;;;;;5073457;28;19912;-63
2022/02/09 06:21:18;;;;;;;;;;;20.00;41.80;;;;;;5031182;28;19948;-63
2022/02/09 06:23:43;;;;;;;;;;;20.00;41.80;;;;;;5064978;28;19916;-64
2022/02/09 06:26:08;;;;;;;;;;;20.00;41.80;;;;;;5073349;28;19908;-63
2022/02/09 06:28:34;;;;;;;;;;;20.00;41.80;;;;;;5073266;28;19931;-64
2022/02/09 06:31:00;;;;;;;;;;;20.00;41.80;;;;;;5073284;28;19908;-64
2022/02/09 06:33:25;;;;;;;;;;;20.00;41.80;;;;;;5055246;28;20291;-64
2022/02/09 06:35:53;;;;;;;;;;;20.00;41.80;;;;;;5073161;28;20325;-64
2022/02/09 06:38:19;;;;;;;;;;;20.00;41.80;;;;;;5073048;28;19916;-63
2022/02/09 06:40:46;;;;;;;;;;;20.00;41.80;;;;;;5055213;28;19908;-64
2022/02/09 06:43:13;;;;;;;;;;;20.00;41.80;;;;;;5073086;28;20374;-64
2022/02/09 06:45:41;;;;;;;;;;;20.10;41.80;;;;;;5073297;28;19974;-64
2022/02/09 06:48:10;;;;;;;;;;;20.10;41.80;;;;;;5072984;28;20305;-64
2022/02/09 06:50:40;;;;;;;;;;;20.10;41.80;;;;;;5072986;28;20003;-63
2022/02/09 06:53:25;;;;;;;;;;;20.10;41.80;;;;;;5073095;28;19989;-64
2022/02/09 06:55:55;;;;;;;;;;;20.10;41.80;;;;;;5073438;28;19946;-63
2022/02/09 06:58:41;;;;;;;;;;;20.10;41.80;;;;;;5055140;28;19924;-64
2022/02/09 07:01:07;;;;;;;;;;;20.10;41.80;;;;;;5072767;28;19997;-64
2022/02/09 07:03:36;;;;;;;;;;;20.10;41.80;;;;;;5073324;28;20310;-63
2022/02/09 07:06:01;;;;;;;;;;;20.10;41.80;;;;;;5073029;28;19915;-64
2022/02/09 07:08:27;;;;;;;;;;;20.10;41.80;;;;;;5073101;28;19908;-63
2022/02/09 07:10:53;;;;;;;;;;;20.10;41.80;;;;;;5073274;28;19915;-63
2022/02/09 07:13:19;;;;;;;;;;;20.10;41.80;;;;;;5072826;28;19909;-63
2022/02/09 07:15:49;;;;;;;;;;;20.10;41.70;;;;;;5060101;28;19946;-63
2022/02/09 07:18:15;;;;;;;;;;;20.20;41.70;;;;;;5082642;28;19982;-63
2022/02/09 07:23:43;;;;;;;;;;;20.20;41.60;;;;;;5090749;28;19919;-63
2022/02/09 07:26:12;;;;;;;;;;;20.20;41.70;;;;;;5092381;28;19909;-63
2022/02/09 07:28:38;;;;;;;;;;;20.20;41.70;;;;;;5083567;28;19916;-63
2022/02/09 07:31:06;;;;;;;;;;;20.20;41.70;;;;;;5074724;28;19939;-61
2022/02/09 07:33:32;;;;;;;;;;;20.20;41.80;;;;;;5076559;28;19924;-62
2022/02/09 07:35:58;;;;;;;;;;;20.30;41.70;;;;;;5059324;28;19916;-63
2022/02/09 07:38:23;;;;;;;;;;;20.20;41.70;;;;;;5088128;28;19920;-63
2022/02/09 07:40:52;;;;;;;;;;;20.20;41.80;;;;;;5089352;28;19969;-63
2022/02/09 07:43:25;;;;;;;;;;;20.30;41.90;;;;;;5089115;28;20106;-61
2022/02/09 07:48:40;;;;;;;;;;;20.20;41.80;;;;;;5094621;28;20011;-60
2022/02/09 07:52:12;;;;;;;;;;;20.00;42.30;;;;;;5076539;28;20380;-62
2022/02/09 07:54:02;;;;;;;;;;;20.00;42.60;;;;;;5072034;28;19912;-63
2022/02/09 07:56:27;;;;;;;;;;;20.20;42.30;;;;;;5075037;28;19933;-63
2022/02/09 07:58:53;;;;;;;;;;;20.20;42.10;;;;;;5089392;28;19920;-63
2022/02/09 08:01:18;;;;;;;;;;;20.30;42.10;;;;;;5090252;28;19951;-62
2022/02/09 08:03:44;;;;;;;;;;;20.20;42.10;;;;;;5073329;28;19912;-64
2022/02/09 08:06:10;;;;;;;;;;;20.30;42.20;;;;;;5094423;28;19909;-62
2022/02/09 08:08:36;;;;;;;;;;;20.30;42.10;;;;;;5098704;28;20465;-61
2022/02/09 08:11:14;;;;;;;;;;;20.30;42.20;;;;;;5098981;28;19913;-61
2022/02/09 08:32:49;;;;;;;;;;;20.40;42.40;;;;;;5082648;28;19952;-62
2022/02/09 08:35:14;;;;;;;;;;;20.40;42.40;;;;;;5092536;28;19995;-63
2022/02/09 08:37:40;;;;;;;;;;;20.40;42.40;;;;;;5079213;28;20007;-63
2022/02/09 08:40:06;;;;;;;;;;;20.40;42.40;;;;;;5086804;28;20260;-62
2022/02/09 08:42:33;;;;;;;;;;;20.40;42.50;;;;;;5093315;28;20061;-62
2022/02/09 08:44:59;;;;;;;;;;;20.40;42.50;;;;;;5091376;28;19912;-62
2022/02/09 08:47:25;;;;;;;;;;;20.40;42.40;;;;;;5093839;28;19916;-62
2022/02/09 08:49:50;;;;;;;;;;;20.40;42.50;;;;;;5075874;28;19947;-63
2022/02/09 08:52:15;;;;;;;;;;;20.40;42.40;;;;;;5081922;28;20359;-64
2022/02/09 08:54:42;;;;;;;;;;;20.40;42.50;;;;;;5061509;28;20138;-62
2022/02/09 08:57:10;;;;;;;;;;;20.50;42.50;;;;;;5080727;28;20351;-63
2022/02/09 08:59:36;;;;;;;;;;;20.40;42.50;;;;;;5075790;28;19920;-63
2022/02/09 09:02:05;;;;;;;;;;;20.40;42.50;;;;;;5074279;28;19927;-63
2022/02/09 09:04:55;;;;;;;;;;;20.40;42.40;;;;;;5054821;28;20334;-63
2022/02/09 09:07:23;;;;;;;;;;;20.50;42.50;;;;;;5076574;28;19950;-62
2022/02/09 09:25:24;;;;;;;;;;;20.50;42.50;;;;;;5088116;28;20029;-64
2022/02/09 10:01:51;;;;;;;;;;;20.50;42.60;;;;;;5074362;28;19921;-62
2022/02/09 10:04:41;;;;;;;;;;;20.50;42.60;;;;;;5084260;28;20007;-62
2022/02/09 10:32:59;;;;;;;;;;;20.60;42.60;;;;;;5093541;28;20272;-62
2022/02/09 10:35:27;;;;;;;;;;;20.60;42.60;;;;;;5077700;28;20436;-62
2022/02/09 10:37:55;;;;;;;;;;;20.60;42.60;;;;;;5078372;28;19925;-61
2022/02/09 10:40:51;;;;;;;;;;;20.60;42.70;;;;;;5093005;28;19909;-62
2022/02/09 10:43:27;;;;;;;;;;;20.60;42.50;;;;;;5083962;28;19912;-61
2022/02/09 10:46:07;;;;;;;;;;;20.60;42.60;;;;;;5082563;28;19919;-60
2022/02/09 10:48:35;;;;;;;;;;;20.60;42.60;;;;;;5074990;28;19978;-61
2022/02/09 10:51:15;;;;;;;;;;;20.60;42.60;;;;;;5087275;28;19923;-61
2022/02/09 10:53:59;;;;;;;;;;;20.50;42.60;;;;;;5081109;28;19913;-61
2022/02/09 10:56:24;;;;;;;;;;;20.60;42.70;;;;;;5075791;28;19950;-61
2022/02/09 10:58:50;;;;;;;;;;;20.60;42.60;;;;;;5054043;28;20298;-62
2022/02/09 11:01:16;;;;;;;;;;;20.60;42.60;;;;;;5074602;28;19927;-62
2022/02/09 11:03:41;;;;;;;;;;;20.60;42.60;;;;;;5062457;28;19913;-62
2022/02/09 11:06:07;;;;;;;;;;;20.60;42.60;;;;;;5073069;28;20360;-62
2022/02/09 11:08:32;;;;;;;;;;;20.60;42.70;;;;;;5080478;28;20260;-62
2022/02/09 11:10:59;;;;;;;;;;;20.70;42.60;;;;;;5082436;28;20277;-63
2022/02/09 11:13:24;;;;;;;;;;;20.60;42.60;;;;;;5095721;28;19973;-62
2022/02/09 11:15:50;;;;;;;;;;;20.60;42.70;;;;;;5095980;28;19908;-61
2022/02/09 11:18:19;;;;;;;;;;;20.60;42.70;;;;;;5073486;28;19924;-62
2022/02/09 11:21:03;;;;;;;;;;;20.60;42.70;;;;;;5088269;28;20352;-62
2022/02/09 11:23:39;;;;;;;;;;;20.60;42.60;;;;;;5075843;28;19912;-62
2022/02/09 11:26:11;;;;;;;;;;;20.60;42.60;;;;;;5080116;28;19913;-62
2022/02/09 11:28:42;;;;;;;;;;;20.70;42.50;;;;;;5094904;28;20297;-62
2022/02/09 11:31:19;;;;;;;;;;;20.60;42.60;;;;;;5078128;28;19918;-63
2022/02/09 11:34:07;;;;;;;;;;;20.60;42.60;;;;;;5089295;28;19916;-62
2022/02/09 11:36:41;;;;;;;;;;;20.70;42.60;;;;;;5084999;28;19913;-62
2022/02/09 11:39:16;;;;;;;;;;;20.60;42.70;;;;;;5077203;28;19921;-61
2022/02/09 11:41:58;;;;;;;;;;;20.70;42.70;;;;;;5086915;28;19912;-63
2022/02/09 11:44:50;;;;;;;;;;;20.60;42.70;;;;;;5095602;28;20263;-63
2022/02/09 11:50:53;;;;;;;;;;;20.70;42.70;;;;;;5095625;28;19908;-62
2022/02/09 11:58:46;;;;;;;;;;;20.70;42.70;;;;;;5088610;28;19924;-63
2022/02/09 12:09:45;;;;;;;;;;;20.70;42.70;;;;;;5083931;28;20259;-63
2022/02/09 12:12:16;;;;;;;;;;;20.70;42.60;;;;;;5093004;28;20391;-67
2022/02/09 12:17:33;;;;;;;;;;;20.00;43.10;;;;;;5085947;28;19913;-63
2022/02/09 12:20:06;;;;;;;;;;;20.00;43.40;;;;;;5081503;28;19920;-63
2022/02/09 12:22:43;;;;;;;;;;;20.30;43.40;;;;;;5087530;28;19940;-64
2022/02/09 12:25:09;;;;;;;;;;;20.40;43.30;;;;;;5092069;28;20005;-64
2022/02/09 12:27:34;;;;;;;;;;;20.50;43.10;;;;;;5094120;28;19943;-63
2022/02/09 12:30:08;;;;;;;;;;;20.60;42.90;;;;;;5080762;28;19932;-64
2022/02/09 12:32:35;;;;;;;;;;;20.70;42.80;;;;;;5093917;28;20352;-63
2022/02/09 12:35:08;;;;;;;;;;;20.70;42.80;;;;;;5092722;28;19909;-63
2022/02/09 12:37:35;;;;;;;;;;;20.70;42.80;;;;;;5087085;28;19912;-62
2022/02/09 12:40:03;;;;;;;;;;;20.70;42.80;;;;;;5093718;28;19916;-63
2022/02/09 12:42:30;;;;;;;;;;;20.80;42.60;;;;;;5094071;28;19916;-61
2022/02/09 12:45:01;;;;;;;;;;;20.80;42.60;;;;;;5091997;28;19962;-62
2022/02/09 12:47:30;;;;;;;;;;;20.80;42.60;;;;;;5093581;28;20402;-63
2022/02/09 12:49:56;;;;;;;;;;;20.80;42.70;;;;;;5083531;28;19913;-63
2022/02/09 12:52:31;;;;;;;;;;;20.80;42.60;;;;;;5085450;28;19998;-63
2022/02/09 12:55:00;;;;;;;;;;;20.90;42.60;;;;;;5088573;28;19912;-63
2022/02/09 12:57:32;;;;;;;;;;;20.80;42.70;;;;;;5082061;28;19988;-63
2022/02/09 12:59:57;;;;;;;;;;;20.90;42.60;;;;;;5082024;28;20437;-61
2022/02/09 13:02:23;;;;;;;;;;;20.90;42.60;;;;;;5082646;28;19951;-62
2022/02/09 13:04:59;;;;;;;;;;;20.90;42.70;;;;;;5090870;28;19965;-61
2022/02/09 13:07:25;;;;;;;;;;;20.80;42.70;;;;;;5088002;28;20379;-61
2022/02/09 13:09:53;;;;;;;;;;;20.80;42.80;;;;;;5079789;28;20507;-62
2022/02/09 13:12:26;;;;;;;;;;;20.80;42.90;;;;;;5086367;28;19971;-62
2022/02/09 13:14:51;;;;;;;;;;;20.80;42.90;;;;;;5080238;28;20267;-62
2022/02/09 13:25:18;;;;;;;;;;;20.80;42.90;;;;;;5073566;28;19916;-63
2022/02/09 14:18:03;;;;;;;;;;;20.80;43.10;;;;;;5090977;28;19919;-62
2022/02/09 14:32:05;;;;;;;;;;;20.90;42.90;;;;;;5089263;28;19922;-61
2022/02/09 14:53:30;;;;;;;;;;;20.90;43.10;;;;;;5092006;28;19931;-61
2022/02/09 14:56:07;;;;;;;;;;;20.90;43.10;;;;;;5091840;28;20340;-62
2022/02/09 14:58:35;;;;;;;;;;;20.90;43.10;;;;;;5071859;28;19917;-65
2022/02/09 15:03:47;;;;;;;;;;;20.90;43.10;;;;;;5091933;28;20035;-61
2022/02/09 15:11:40;;;;;;;;;;;20.80;43.10;;;;;;5076579;28;19915;-60
2022/02/09 15:14:14;;;;;;;;;;;20.80;43.20;;;;;;5090198;28;19916;-61
2022/02/09 15:22:17;;;;;;;;;;;20.90;43.10;;;;;;5091853;28;20280;-62
2022/02/09 15:24:44;;;;;;;;;;;20.80;43.10;;;;;;5091943;28;19919;-62
2022/02/09 15:27:14;;;;;;;;;;;20.90;43.10;;;;;;5084100;28;19913;-61
2022/02/09 15:29:39;;;;;;;;;;;20.90;43.10;;;;;;5071684;28;20355;-62
2022/02/09 15:32:09;;;;;;;;;;;20.90;43.10;;;;;;5075672;28;19908;-61
2022/02/09 15:34:41;;;;;;;;;;;20.90;43.10;;;;;;5077920;28;19912;-60
2022/02/09 15:37:19;;;;;;;;;;;20.90;43.10;;;;;;5086492;28;19994;-61
2022/02/09 15:39:52;;;;;;;;;;;20.90;43.10;;;;;;5091601;28;19927;-61
2022/02/09 15:59:13;;;;;;;;;;;20.90;43.20;;;;;;5079574;28;19927;-62
2022/02/09 16:23:43;;;;;;;;;;;20.90;43.20;;;;;;5050116;28;20345;-61
2022/02/09 16:44:18;;;;;;;;;;;20.90;43.20;;;;;;5074734;28;20302;-62
2022/02/09 16:45:02;;;;;;;;;;;20.90;43.20;;;;;;5074405;28;19920;-63
2022/02/09 16:49:59;;;;;;;;;;;20.90;43.20;;;;;;5080972;28;19913;-63
2022/02/09 16:52:33;;;;;;;;;;;20.90;43.20;;;;;;5074445;28;20271;-62
2022/02/09 16:55:23;;;;;;;;;;;20.90;43.20;;;;;;5073458;28;20009;-64
2022/02/09 17:19:25;;;;;;;;;;;21.00;43.50;;;;;;5094634;28;19923;-63
2022/02/09 17:21:51;;;;;;;;;;;21.00;44.80;;;;;;5094992;28;20363;-63
2022/02/09 17:24:16;;;;;;;;;;;21.00;44.10;;;;;;5076466;28;20282;-64
2022/02/09 17:26:43;;;;;;;;;;;21.00;44.10;;;;;;5094643;28;20397;-63
2022/02/09 17:29:09;;;;;;;;;;;20.90;43.90;;;;;;5094509;28;19989;-64
2022/02/09 17:57:43;;;;;;;;;;;20.80;44.30;;;;;;5094336;28;20009;-63
2022/02/09 18:00:15;;;;;;;;;;;20.80;44.30;;;;;;5093927;28;19920;-63
2022/02/09 18:02:43;;;;;;;;;;;20.80;44.30;;;;;;5094243;28;20283;-63
2022/02/09 18:05:18;;;;;;;;;;;20.80;44.30;;;;;;5093862;28;20053;-63
2022/02/09 18:07:48;;;;;;;;;;;20.80;44.30;;;;;;5094155;28;19909;-63
2022/02/09 18:11:07;;;;;;;;;;;20.80;44.30;;;;;;5093922;28;20005;-63
2022/02/09 18:29:26;;;;;;;;;;;20.80;44.10;;;;;;5093556;28;19954;-63
2022/02/09 18:34:34;;;;;;;;;;;20.80;44.10;;;;;;5093831;28;20034;-63
2022/02/09 18:42:50;;;;;;;;;;;20.80;44.00;;;;;;5093710;28;19912;-63
2022/02/09 18:45:38;;;;;;;;;;;20.80;43.90;;;;;;5093054;28;19930;-64
2022/02/09 18:48:39;;;;;;;;;;;20.80;43.90;;;;;;5093490;28;19908;-63
2022/02/09 18:59:49;;;;;;;;;;;20.80;43.90;;;;;;5078040;28;19923;-64
2022/02/09 19:02:34;;;;;;;;;;;20.80;43.80;;;;;;5093048;28;20010;-63
2022/02/09 19:05:19;;;;;;;;;;;20.80;43.80;;;;;;5093150;28;19918;-63
2022/02/09 19:18:42;;;;;;;;;;;20.80;43.70;;;;;;5093327;28;19915;-63
2022/02/09 19:31:48;;;;;;;;;;;20.70;43.60;;;;;;5097159;28;19908;-63
2022/02/09 19:48:21;;;;;;;;;;;20.80;43.50;;;;;;5091161;28;19996;-63
2022/02/09 19:54:01;;;;;;;;;;;20.80;43.50;;;;;;5096893;28;20092;-63
2022/02/09 19:56:27;;;;;;;;;;;20.80;43.50;;;;;;5096652;28;19958;-63
2022/02/09 19:59:00;;;;;;;;;;;20.80;43.50;;;;;;5096366;28;19986;-63
2022/02/09 20:01:36;;;;;;;;;;;20.80;43.50;;;;;;5096180;28;19924;-63
2022/02/09 20:04:02;;;;;;;;;;;20.80;43.40;;;;;;5096662;28;20003;-64
2022/02/09 20:06:27;;;;;;;;;;;20.80;43.40;;;;;;5096387;28;20355;-63
2022/02/09 20:08:53;;;;;;;;;;;20.80;43.40;;;;;;5078052;28;19953;-63
2022/02/09 20:11:19;;;;;;;;;;;20.80;43.40;;;;;;5095977;28;19950;-63
2022/02/09 20:13:46;;;;;;;;;;;20.80;43.40;;;;;;5096065;28;20050;-63
2022/02/09 20:16:12;;;;;;;;;;;20.80;43.40;;;;;;5096398;28;19908;-63
2022/02/09 20:18:38;;;;;;;;;;;20.80;43.40;;;;;;5096037;28;19935;-63
2022/02/09 20:21:03;;;;;;;;;;;20.80;43.40;;;;;;5096176;28;19919;-63
2022/02/09 20:23:31;;;;;;;;;;;20.80;43.30;;;;;;5096110;28;19916;-63
2022/02/09 20:25:58;;;;;;;;;;;20.80;43.40;;;;;;5096286;28;19908;-63
2022/02/09 20:28:24;;;;;;;;;;;20.80;43.30;;;;;;5095898;28;20261;-63
2022/02/09 20:30:58;;;;;;;;;;;20.80;43.30;;;;;;5061108;28;19915;-63
2022/02/09 20:33:30;;;;;;;;;;;20.80;43.30;;;;;;5095795;28;20386;-63
2022/02/09 20:35:57;;;;;;;;;;;20.80;43.30;;;;;;5095875;28;19908;-63
2022/02/09 20:38:26;;;;;;;;;;;20.80;43.30;;;;;;5095722;28;19919;-63
2022/02/09 20:40:55;;;;;;;;;;;20.80;43.20;;;;;;5095350;28;19912;-64
2022/02/09 20:43:23;;;;;;;;;;;20.80;43.20;;;;;;5077549;28;19991;-63
2022/02/09 20:45:54;;;;;;;;;;;20.80;43.20;;;;;;5095585;28;19908;-63
2022/02/09 20:48:26;;;;;;;;;;;20.80;43.20;;;;;;5095634;28;19916;-63
2022/02/09 20:50:51;;;;;;;;;;;20.80;43.20;;;;;;5095542;28;20359;-63
2022/02/09 20:53:18;;;;;;;;;;;20.80;43.20;;;;;;5095297;28;19915;-63
2022/02/09 20:55:45;;;;;;;;;;;20.80;43.20;;;;;;5095398;28;19908;-63
2022/02/09 20:58:11;;;;;;;;;;;20.80;43.20;;;;;;5095389;28;20004;-63
2022/02/09 21:03:23;;;;;;;;;;;20.80;43.10;;;;;;5095372;28;20279;-62
2022/02/09 21:08:28;;;;;;;;;;;20.80;43.10;;;;;;5077306;28;20000;-62
2022/02/09 21:16:24;;;;;;;;;;;20.80;43.10;;;;;;5094980;28;19908;-61
2022/02/09 21:32:39;;;;;;;;;;;20.80;43.10;;;;;;5095135;28;19915;-64
2022/02/09 21:44:21;;;;;;;;;;;20.70;43.20;;;;;;5094955;28;19915;-64
2022/02/09 21:46:23;;;;;;;;;;;20.70;43.20;;;;;;5094342;28;19908;-63
2022/02/09 21:52:14;;;;;;;;;;;20.60;43.20;;;;;;5094445;28;19916;-64
2022/02/09 21:54:43;;;;;;;;;;;20.60;43.20;;;;;;5093903;28;19938;-64
2022/02/09 21:59:58;;;;;;;;;;;20.50;43.20;;;;;;5094256;28;19916;-63
2022/02/09 22:16:24;;;;;;;;;;;20.50;43.10;;;;;;5094051;28;20428;-64
2022/02/09 22:27:15;;;;;;;;;;;20.50;43.10;;;;;;5093844;28;19915;-63
2022/02/09 22:30:09;;;;;;;;;;;20.50;43.10;;;;;;5093542;28;19908;-63
2022/02/09 22:49:02;;;;;;;;;;;20.50;43.10;;;;;;5093886;28;20371;-63
2022/02/09 22:56:33;;;;;;;;;;;20.50;43.10;;;;;;5093808;28;19942;-64
2022/02/09 22:59:01;;;;;;;;;;;20.40;43.00;;;;;;5093392;28;19924;-63
2022/02/09 23:01:38;;;;;;;;;;;20.40;43.00;;;;;;5093331;28;20245;-64
2022/02/09 23:06:51;;;;;;;;;;;20.40;43.00;;;;;;5097883;28;19908;-63
2022/02/09 23:22:52;;;;;;;;;;;20.40;43.00;;;;;;5097364;28;20401;-63
